Time;durP1;ratioP1;P1;durP2;ratioP2;P2;SDS_P1;SDS_P2;PMS_P1;PMS_P2;Temp;Humidity;BMP_temperature;BMP_pressure;BME280_temperature;BME280_humidity;BME280_pressure;Samples;Min_cycle;Max_cycle;Signal;HPM_P1;HPM_P2
2023/06/02 00:00:03;;;;;;;19.17;7.72;;;486.90;2380.80;;;;;;5071213;28;20099;-75
2023/06/02 00:02:29;;;;;;;15.23;6.88;;;486.90;2380.80;;;;;;5070513;28;20115;-72
2023/06/02 00:04:59;;;;;;;19.25;7.30;;;486.90;2380.80;;;;;;5067962;28;20031;-75
2023/06/02 00:07:28;;;;;;;20.15;8.45;;;486.90;2380.80;;;;;;5054926;28;20044;-77
2023/06/02 00:09:55;;;;;;;20.42;7.22;;;486.90;2380.80;;;;;;5073153;28;20043;-75
2023/06/02 00:12:22;;;;;;;11.60;7.63;;;487.00;2380.80;;;;;;5073218;28;20024;-73
2023/06/02 00:14:49;;;;;;;10.48;7.57;;;487.00;2380.80;;;;;;5071810;28;20393;-78
2023/06/02 00:17:18;;;;;;;13.05;7.57;;;487.00;2380.80;;;;;;5071810;28;20020;-74
2023/06/02 00:19:45;;;;;;;14.02;7.38;;;486.90;2380.80;;;;;;5067686;28;20050;-76
2023/06/02 00:22:13;;;;;;;10.43;7.45;;;487.00;2380.80;;;;;;5072621;28;20090;-71
2023/06/02 00:24:40;;;;;;;16.95;7.93;;;486.90;2380.80;;;;;;5070700;28;20039;-77
2023/06/02 00:27:07;;;;;;;24.58;10.02;;;486.90;2380.80;;;;;;5072561;28;20040;-74
2023/06/02 00:29:33;;;;;;;15.98;8.52;;;486.80;2380.80;;;;;;5072257;28;20036;-72
2023/06/02 00:31:58;;;;;;;16.15;8.85;;;486.80;2380.80;;;;;;5072629;28;20102;-72
2023/06/02 00:34:24;;;;;;;18.77;9.95;;;486.80;2380.80;;;;;;5072728;28;20048;-73
2023/06/02 00:36:50;;;;;;;21.70;10.68;;;486.80;2380.80;;;;;;5065892;28;20426;-73
2023/06/02 00:39:16;;;;;;;19.73;9.45;;;486.90;2380.80;;;;;;5072986;28;20062;-72
2023/06/02 00:41:41;;;;;;;16.73;9.68;;;487.00;2380.80;;;;;;5070537;28;20497;-78
2023/06/02 00:44:07;;;;;;;17.30;10.00;;;486.80;2380.80;;;;;;5073046;28;20147;-76
2023/06/02 00:46:33;;;;;;;18.35;10.57;;;486.70;2380.80;;;;;;5072946;28;20021;-75
2023/06/02 00:48:59;;;;;;;15.57;10.10;;;486.70;2380.80;;;;;;5072602;28;20426;-79
2023/06/02 00:51:25;;;;;;;20.38;10.40;;;;;;;;;;5068127;28;20486;-75
2023/06/02 00:53:51;;;;;;;18.17;9.40;;;;;;;;;;5071082;28;20025;-80
2023/06/02 00:56:17;;;;;;;17.25;10.35;;;486.60;2380.80;;;;;;5072547;28;20424;-72
2023/06/02 00:58:44;;;;;;;29.83;11.90;;;486.70;2380.80;;;;;;5072433;28;20057;-73
2023/06/02 01:01:12;;;;;;;18.65;10.95;;;486.70;2380.80;;;;;;5072229;28;20024;-73
2023/06/02 01:03:42;;;;;;;22.60;11.45;;;486.60;2380.80;;;;;;5072670;28;20045;-77
2023/06/02 01:06:09;;;;;;;20.60;11.70;;;486.60;2380.80;;;;;;5070394;28;20280;-73
2023/06/02 01:08:37;;;;;;;20.48;11.80;;;486.60;2380.80;;;;;;5072347;28;20020;-79
2023/06/02 01:11:05;;;;;;;17.70;11.77;;;486.60;2380.80;;;;;;5072353;28;20081;-80
2023/06/02 01:13:31;;;;;;;19.17;12.63;;;486.50;2380.80;;;;;;5070610;28;20020;-75
2023/06/02 01:15:57;;;;;;;14.95;11.30;;;486.40;2380.80;;;;;;5072454;28;20021;-79
2023/06/02 01:18:25;;;;;;;21.05;11.77;;;486.50;2201.60;;;;;;5070282;28;20486;-76
2023/06/02 01:20:57;;;;;;;16.45;12.07;;;486.60;2380.80;;;;;;5063853;28;20021;-71
2023/06/02 01:23:28;;;;;;;16.45;10.52;;;;;;;;;;5065453;28;20426;-77
2023/06/02 01:25:54;;;;;;;23.02;11.63;;;486.60;2380.80;;;;;;5063117;28;20020;-76
2023/06/02 01:28:21;;;;;;;17.77;12.15;;;486.60;2380.80;;;;;;5074090;28;20029;-74
2023/06/02 01:30:55;;;;;;;18.92;13.02;;;486.60;2380.80;;;;;;5076279;28;20060;-72
2023/06/02 01:33:32;;;;;;;17.95;12.55;;;486.50;2380.80;;;;;;5071535;28;20035;-71
2023/06/02 01:35:59;;;;;;;20.80;11.82;;;486.50;2380.80;;;;;;5075848;28;20036;-78
2023/06/02 01:38:28;;;;;;;20.88;13.10;;;486.50;2380.80;;;;;;5075855;28;20029;-79
2023/06/02 01:40:58;;;;;;;15.43;11.07;;;486.50;2380.80;;;;;;5076034;28;20032;-73
2023/06/02 01:43:26;;;;;;;27.67;12.77;;;486.60;2380.80;;;;;;5069026;28;20032;-74
2023/06/02 01:45:52;;;;;;;24.20;10.27;;;486.40;2380.80;;;;;;5074232;28;20027;-79
2023/06/02 01:48:17;;;;;;;18.48;11.82;;;486.40;2380.80;;;;;;5076971;28;20028;-80
2023/06/02 01:50:44;;;;;;;26.55;13.52;;;461.70;2380.80;;;;;;5076564;28;20073;-71
2023/06/02 01:53:09;;;;;;;19.23;11.60;;;461.60;2380.80;;;;;;5076441;28;20024;-79
2023/06/02 01:55:35;;;;;;;20.92;13.60;;;486.40;2380.80;;;;;;5076973;28;20020;-73
2023/06/02 01:58:03;;;;;;;25.58;14.00;;;486.40;2380.80;;;;;;5067664;28;20016;-74
2023/06/02 02:00:28;;;;;;;22.35;13.55;;;486.40;2380.80;;;;;;5075465;28;20062;-75
2023/06/02 02:02:54;;;;;;;24.05;13.77;;;461.70;2380.80;;;;;;5075732;28;20043;-74
2023/06/02 02:05:20;;;;;;;28.17;13.68;;;461.70;2380.80;;;;;;5076112;28;20518;-77
2023/06/02 02:07:47;;;;;;;27.95;14.45;;;461.70;2380.80;;;;;;5076100;28;20098;-78
2023/06/02 02:10:14;;;;;;;24.77;14.35;;;461.60;2380.80;;;;;;5076317;28;20489;-71
2023/06/02 02:12:40;;;;;;;32.67;14.68;;;461.60;2380.80;;;;;;5076321;28;20482;-77
2023/06/02 02:15:07;;;;;;;21.73;13.95;;;461.60;2380.80;;;;;;5075956;28;20473;-79
2023/06/02 02:17:44;;;;;;;22.38;14.88;;;461.70;2380.80;;;;;;5076185;28;20017;-80
2023/06/02 02:20:12;;;;;;;32.03;14.23;;;461.70;2380.80;;;;;;5075779;28;20032;-75
2023/06/02 02:22:37;;;;;;;22.23;15.15;;;461.70;2380.80;;;;;;5075881;28;20378;-79
2023/06/02 02:25:03;;;;;;;23.58;15.18;;;461.60;2380.80;;;;;;5075631;28;20020;-81
2023/06/02 02:27:29;;;;;;;27.08;15.60;;;461.50;2380.80;;;;;;5075998;28;20500;-79
2023/06/02 02:29:55;;;;;;;30.27;15.27;;;461.50;2380.80;;;;;;5075590;28;20024;-71
2023/06/02 02:32:21;;;;;;;28.02;15.25;;;461.50;2380.80;;;;;;5075660;28;20047;-80
2023/06/02 02:34:46;;;;;;;31.70;16.98;;;461.50;2380.80;;;;;;5075621;28;20021;-80
2023/06/02 02:37:13;;;;;;;29.38;16.15;;;461.40;2380.80;;;;;;5075241;28;20025;-75
2023/06/02 02:39:39;;;;;;;25.05;14.23;;;461.40;2380.80;;;;;;5074517;28;20077;-78
2023/06/02 02:42:05;;;;;;;26.67;14.70;;;461.40;2380.80;;;;;;5075465;28;20029;-78
2023/06/02 02:44:31;;;;;;;29.38;14.15;;;461.40;2380.80;;;;;;5075365;28;20036;-78
2023/06/02 02:46:58;;;;;;;25.65;14.52;;;461.50;2380.80;;;;;;5075629;28;20016;-77
2023/06/02 02:49:24;;;;;;;30.20;15.82;;;461.40;2380.80;;;;;;5044042;28;20025;-77
2023/06/02 02:51:50;;;;;;;24.98;15.70;;;461.40;2380.80;;;;;;5075696;28;20031;-74
2023/06/02 02:54:16;;;;;;;26.40;15.63;;;461.30;2380.80;;;;;;5074961;28;20028;-79
2023/06/02 02:56:43;;;;;;;27.95;16.13;;;461.40;2380.80;;;;;;5075311;28;20106;-75
2023/06/02 02:59:12;;;;;;;36.25;19.20;;;461.50;2380.80;;;;;;5074980;28;20043;-76
2023/06/02 03:01:44;;;;;;;36.97;17.80;;;461.50;2380.80;;;;;;5075475;28;20031;-73
2023/06/02 03:04:21;;;;;;;27.85;16.98;;;461.50;2380.80;;;;;;5074712;28;20020;-79
2023/06/02 03:06:49;;;;;;;21.90;15.40;;;461.50;2380.80;;;;;;5074839;28;20031;-76
2023/06/02 03:09:16;;;;;;;30.40;16.85;;;461.60;2380.80;;;;;;5061719;28;20066;-72
2023/06/02 03:11:42;;;;;;;24.20;16.17;;;461.60;2380.80;;;;;;5074824;28;20024;-77
2023/06/02 03:14:09;;;;;;;26.20;16.73;;;461.70;2380.80;;;;;;5074944;28;20024;-79
2023/06/02 03:16:34;;;;;;;22.85;15.77;;;461.70;2380.80;;;;;;5056342;28;20029;-80
2023/06/02 03:19:02;;;;;;;29.92;16.23;;;461.70;2380.80;;;;;;5074719;28;20085;-77
2023/06/02 03:21:31;;;;;;;25.58;16.90;;;486.40;2380.80;;;;;;5074051;28;20099;-74
2023/06/02 03:23:58;;;;;;;27.80;15.65;;;486.40;2380.80;;;;;;5055835;28;20044;-77
2023/06/02 03:26:25;;;;;;;31.88;16.60;;;486.40;2380.80;;;;;;5074361;28;20017;-80
2023/06/02 03:28:54;;;;;;;28.33;16.42;;;486.40;2380.80;;;;;;5074507;28;20024;-79
2023/06/02 03:31:20;;;;;;;28.15;16.20;;;486.40;2380.80;;;;;;5074062;28;20041;-75
2023/06/02 03:33:46;;;;;;;24.25;15.63;;;461.70;2380.80;;;;;;5069501;28;20078;-80
2023/06/02 03:36:12;;;;;;;26.30;16.15;;;486.40;2380.80;;;;;;5065643;28;20100;-76
2023/06/02 03:38:38;;;;;;;31.75;16.30;;;486.40;2380.80;;;;;;5074295;28;20024;-77
2023/06/02 03:41:04;;;;;;;26.23;15.30;;;486.40;2380.80;;;;;;5074317;28;20531;-79
2023/06/02 03:43:30;;;;;;;28.05;16.35;;;486.40;2380.80;;;;;;5073969;28;20028;-76
2023/06/02 03:45:56;;;;;;;26.45;15.30;;;486.40;2380.80;;;;;;5074282;28;20474;-73
2023/06/02 03:48:21;;;;;;;31.33;16.77;;;486.40;2380.80;;;;;;5073871;28;20429;-73
2023/06/02 03:50:47;;;;;;;27.52;16.63;;;486.40;2380.80;;;;;;5073768;28;20374;-76
2023/06/02 03:53:13;;;;;;;25.73;16.38;;;461.70;2380.80;;;;;;5073728;28;20027;-81
2023/06/02 03:55:38;;;;;;;23.77;16.00;;;461.70;2380.80;;;;;;5074068;28;20029;-73
2023/06/02 03:58:04;;;;;;;27.73;15.32;;;461.70;2380.80;;;;;;5073874;28;20042;-79
2023/06/02 04:00:30;;;;;;;27.30;15.88;;;486.40;2380.80;;;;;;5073487;28;20085;-76
2023/06/02 04:02:57;;;;;;;25.08;16.02;;;486.50;2380.80;;;;;;5073821;28;20032;-74
2023/06/02 04:05:23;;;;;;;22.35;14.95;;;486.50;2380.80;;;;;;5073567;28;20043;-77
2023/06/02 04:07:48;;;;;;;27.23;16.80;;;486.50;2380.80;;;;;;5073713;28;20025;-73
2023/06/02 04:10:14;;;;;;;27.80;14.48;;;486.50;2380.80;;;;;;5073455;28;20028;-81
2023/06/02 04:12:40;;;;;;;27.05;16.88;;;486.60;2380.80;;;;;;5073741;28;20029;-72
2023/06/02 04:15:06;;;;;;;26.40;15.77;;;486.60;2380.80;;;;;;5073623;28;20024;-80
2023/06/02 04:17:32;;;;;;;26.40;15.27;;;486.60;2380.80;;;;;;5073568;28;20100;-78
2023/06/02 04:19:58;;;;;;;25.13;15.68;;;486.70;2380.80;;;;;;5073440;28;20067;-78
2023/06/02 04:22:24;;;;;;;31.00;16.60;;;486.70;2380.80;;;;;;5073502;28;20107;-78
2023/06/02 04:24:50;;;;;;;21.75;14.40;;;486.90;2380.80;;;;;;5073391;28;20700;-79
2023/06/02 04:27:17;;;;;;;22.08;14.02;;;487.00;2380.80;;;;;;5073460;28;20029;-80
2023/06/02 04:29:43;;;;;;;22.88;14.82;;;487.00;2380.80;;;;;;5073347;28;20046;-80
2023/06/02 04:32:09;;;;;;;20.13;13.77;;;487.10;2380.80;;;;;;5073253;28;20505;-76
2023/06/02 04:34:35;;;;;;;28.08;15.07;;;487.10;2380.80;;;;;;5061982;28;20060;-81
2023/06/02 04:37:02;;;;;;;20.77;12.60;;;487.20;2380.80;;;;;;5071640;28;20020;-80
2023/06/02 04:39:28;;;;;;;23.63;13.18;;;487.30;2380.80;;;;;;5073618;28;20024;-80
2023/06/02 04:41:56;;;;;;;18.65;13.82;;;487.30;2380.80;;;;;;5073271;28;20039;-80
2023/06/02 04:44:22;;;;;;;41.33;15.00;;;487.20;2380.80;;;;;;5073175;28;20033;-76
2023/06/02 04:46:49;;;;;;;16.40;12.80;;;487.30;2380.80;;;;;;5073133;28;20253;-76
2023/06/02 04:49:15;;;;;;;19.30;11.85;;;487.30;2380.80;;;;;;5073041;28;20024;-79
2023/06/02 04:51:41;;;;;;;22.50;13.27;;;487.30;2380.80;;;;;;5073031;28;20111;-81
2023/06/02 04:54:07;;;;;;;21.58;14.57;;;512.00;2380.80;;;;;;5073318;28;20025;-80
2023/06/02 04:56:36;;;;;;;23.23;13.63;;;512.10;2380.80;;;;;;5073205;28;20024;-78
2023/06/02 04:59:02;;;;;;;21.60;13.38;;;512.10;2380.80;;;;;;5073015;28;20021;-79
2023/06/02 05:01:28;;;;;;;19.60;12.32;;;512.20;2380.80;;;;;;5073044;28;20441;-83
2023/06/02 05:03:54;;;;;;;15.90;12.05;;;512.20;2380.80;;;;;;5075984;28;20112;-85
2023/06/02 05:06:20;;;;;;;33.45;13.32;;;512.20;2227.20;;;;;;5077030;28;20098;-74
2023/06/02 05:08:46;;;;;;;16.13;12.35;;;512.30;2380.80;;;;;;5076970;28;20025;-72
2023/06/02 05:11:12;;;;;;;17.27;12.10;;;512.40;2380.80;;;;;;5077378;28;20470;-79
2023/06/02 05:13:37;;;;;;;19.85;12.02;;;512.50;2380.80;;;;;;5077103;28;20060;-72
2023/06/02 05:16:03;;;;;;;15.20;11.18;;;512.60;2380.80;;;;;;5076973;28;20115;-74
2023/06/02 05:18:29;;;;;;;17.50;11.57;;;512.70;2380.80;;;;;;5075078;28;20051;-74
2023/06/02 05:20:55;;;;;;;18.33;11.90;;;;;;;;;;5072719;28;20017;-73
2023/06/02 05:23:21;;;;;;;18.83;12.57;;;;;;;;;;5064146;28;20083;-71
2023/06/02 05:25:49;;;;;;;16.05;11.45;;;;;;;;;;5076624;28;20020;-71
2023/06/02 05:28:15;;;;;;;19.42;12.18;;;;;;;;;;5076042;28;20081;-72
2023/06/02 05:30:41;;;;;;;16.75;10.13;;;;;;;;;;5075832;28;20029;-71
2023/06/02 05:33:07;;;;;;;19.58;11.68;;;538.10;2406.40;;;;;;5075969;28;20043;-74
2023/06/02 05:35:33;;;;;;;15.30;11.02;;;538.10;2406.40;;;;;;5075663;28;20025;-73
2023/06/02 05:37:58;;;;;;;15.48;11.80;;;538.20;2406.40;;;;;;5076215;28;20034;-73
2023/06/02 05:40:24;;;;;;;18.23;11.68;;;538.20;2406.40;;;;;;5075905;28;20363;-78
2023/06/02 05:42:50;;;;;;;17.80;11.10;;;538.30;2406.40;;;;;;5075866;28;20044;-71
2023/06/02 05:45:15;;;;;;;15.90;10.63;;;538.40;2406.40;;;;;;5071359;28;20414;-73
2023/06/02 05:47:41;;;;;;;15.10;10.88;;;538.40;2406.40;;;;;;5071907;28;20448;-73
2023/06/02 05:50:07;;;;;;;14.18;11.00;;;538.50;2406.40;;;;;;5075737;28;20024;-72
2023/06/02 05:52:33;;;;;;;17.08;10.30;;;538.50;2406.40;;;;;;5068010;28;20034;-72
2023/06/02 05:54:58;;;;;;;16.13;11.27;;;563.20;2432.00;;;;;;5073930;28;20115;-72
2023/06/02 05:57:24;;;;;;;15.07;8.98;;;563.20;2432.00;;;;;;5074998;28;20024;-72
2023/06/02 05:59:50;;;;;;;15.27;9.48;;;563.20;2432.00;;;;;;5075243;28;20028;-72
2023/06/02 06:02:15;;;;;;;17.67;10.45;;;563.30;2432.00;;;;;;5075979;28;20096;-73
2023/06/02 06:04:41;;;;;;;13.18;8.85;;;563.40;2432.00;;;;;;5075467;28;20078;-72
2023/06/02 06:07:08;;;;;;;11.38;8.88;;;563.50;2432.00;;;;;;5075145;28;20024;-75
2023/06/02 06:09:33;;;;;;;11.55;8.02;;;563.60;2432.00;;;;;;5074972;28;20036;-72
2023/06/02 06:11:59;;;;;;;12.48;9.05;;;563.60;2432.00;;;;;;5050318;28;20029;-71
2023/06/02 06:14:25;;;;;;;14.32;8.55;;;563.60;2432.00;;;;;;5075224;28;20065;-73
2023/06/02 06:16:50;;;;;;;15.00;8.85;;;563.80;2432.00;;;;;;5073415;28;20021;-72
2023/06/02 06:19:18;;;;;;;13.30;8.65;;;563.80;2432.00;;;;;;5073290;28;20032;-72
2023/06/02 06:21:43;;;;;;;14.05;9.20;;;563.90;2432.00;;;;;;5067692;28;20027;-75
2023/06/02 06:24:09;;;;;;;17.38;9.57;;;;;;;;;;5074399;28;20040;-72
2023/06/02 06:26:35;;;;;;;11.73;8.88;;;564.10;2432.00;;;;;;5074876;28;20024;-72
2023/06/02 06:29:01;;;;;;;12.95;9.90;;;588.80;2432.00;;;;;;5075061;28;20492;-72
2023/06/02 06:31:27;;;;;;;16.50;9.45;;;588.90;2432.00;;;;;;5074900;28;20071;-71
2023/06/02 06:33:52;;;;;;;20.02;10.60;;;589.00;2432.00;;;;;;5074670;28;20064;-71
2023/06/02 06:36:18;;;;;;;12.45;9.48;;;589.00;2432.00;;;;;;5068811;28;20024;-81
2023/06/02 06:38:44;;;;;;;14.80;8.77;;;589.20;2432.00;;;;;;5075285;28;20027;-72
2023/06/02 06:41:09;;;;;;;17.38;9.48;;;589.20;2432.00;;;;;;5074430;28;20025;-78
2023/06/02 06:43:35;;;;;;;13.43;8.48;;;589.20;2432.00;;;;;;5074616;28;20044;-73
2023/06/02 06:46:01;;;;;;;10.30;8.05;;;589.30;2432.00;;;;;;5074757;28;20095;-73
2023/06/02 06:48:27;;;;;;;12.32;9.15;;;589.40;2432.00;;;;;;5074670;28;20028;-75
2023/06/02 06:50:53;;;;;;;14.88;9.38;;;589.50;2432.00;;;;;;5074695;28;20021;-72
2023/06/02 06:53:19;;;;;;;18.10;9.32;;;589.50;2432.00;;;;;;5074444;28;20051;-72
2023/06/02 06:55:46;;;;;;;13.20;7.80;;;589.60;2432.00;;;;;;5074383;28;20036;-73
2023/06/02 06:58:12;;;;;;;14.60;7.55;;;589.60;2432.00;;;;;;5074340;28;20043;-72
2023/06/02 07:00:38;;;;;;;12.50;8.23;;;589.60;2432.00;;;;;;5074667;28;20041;-71
2023/06/02 07:03:04;;;;;;;10.43;8.18;;;589.70;2432.00;;;;;;5074530;28;20058;-74
2023/06/02 07:05:30;;;;;;;13.20;8.18;;;614.40;2432.00;;;;;;5074244;28;20108;-72
2023/06/02 07:07:56;;;;;;;17.15;9.15;;;614.40;2432.00;;;;;;5074207;28;20474;-73
2023/06/02 07:10:22;;;;;;;15.75;8.40;;;614.50;2432.00;;;;;;5074099;28;20020;-77
2023/06/02 07:12:48;;;;;;;12.15;7.85;;;614.60;2432.00;;;;;;5074094;28;20078;-72
2023/06/02 07:15:14;;;;;;;12.77;8.70;;;614.60;2432.00;;;;;;5074402;28;20025;-73
2023/06/02 07:17:43;;;;;;;12.20;8.43;;;614.70;2432.00;;;;;;5056318;28;20529;-71
2023/06/02 07:20:10;;;;;;;13.57;8.15;;;614.80;2432.00;;;;;;5067456;28;20077;-79
2023/06/02 07:22:36;;;;;;;13.93;8.65;;;614.90;2432.00;;;;;;5074479;28;20020;-73
2023/06/02 07:25:03;;;;;;;12.18;7.88;;;615.10;2432.00;;;;;;5073384;28;20055;-73
2023/06/02 07:27:29;;;;;;;17.85;8.98;;;615.20;2432.00;;;;;;5073836;28;20024;-72
2023/06/02 07:29:55;;;;;;;17.80;8.80;;;615.30;2432.00;;;;;;5073774;28;20025;-72
2023/06/02 07:32:21;;;;;;;15.43;8.57;;;640.00;2432.00;;;;;;5073677;28;20528;-76
2023/06/02 07:34:47;;;;;;;12.80;8.20;;;640.00;2432.00;;;;;;5073794;28;20017;-72
2023/06/02 07:37:13;;;;;;;12.50;8.65;;;640.00;2432.00;;;;;;5065695;28;20021;-76
2023/06/02 07:39:39;;;;;;;13.15;8.50;;;640.20;2432.00;;;;;;5073843;28;20025;-73
2023/06/02 07:42:05;;;;;;;12.35;8.18;;;640.20;2432.00;;;;;;5073368;28;20024;-72
2023/06/02 07:44:31;;;;;;;14.63;9.00;;;640.30;2432.00;;;;;;5073582;28;20043;-78
2023/06/02 07:46:57;;;;;;;13.95;8.18;;;640.40;2432.00;;;;;;5073489;28;20025;-75
2023/06/02 07:49:22;;;;;;;13.60;8.90;;;640.20;2432.00;;;;;;5073733;28;20107;-73
2023/06/02 07:51:48;;;;;;;16.17;8.57;;;640.40;2432.00;;;;;;5073385;28;20075;-76
2023/06/02 07:54:14;;;;;;;16.63;8.75;;;640.40;2432.00;;;;;;5073288;28;20511;-76
2023/06/02 07:56:40;;;;;;;14.82;8.75;;;640.50;2432.00;;;;;;5073120;28;20021;-74
2023/06/02 07:59:05;;;;;;;16.48;8.27;;;640.60;2432.00;;;;;;5073382;28;20016;-74
2023/06/02 08:01:31;;;;;;;11.27;8.10;;;640.60;2432.00;;;;;;5073026;28;20036;-77
2023/06/02 08:03:58;;;;;;;11.73;8.18;;;640.60;2432.00;;;;;;5073171;28;20029;-73
2023/06/02 08:06:24;;;;;;;14.48;8.68;;;640.60;2432.00;;;;;;5068674;28;20024;-78
2023/06/02 08:08:50;;;;;;;10.73;7.90;;;640.70;2432.00;;;;;;5073028;28;20028;-73
2023/06/02 08:11:16;;;;;;;12.95;8.50;;;640.80;2432.00;;;;;;5049607;28;20078;-72
2023/06/02 08:13:41;;;;;;;14.73;9.25;;;665.60;2432.00;;;;;;5072948;28;20021;-81
2023/06/02 08:16:07;;;;;;;13.07;9.00;;;665.60;2432.00;;;;;;5070621;28;20039;-77
2023/06/02 08:18:33;;;;;;;10.88;8.07;;;665.60;2432.00;;;;;;5057466;28;20489;-80
2023/06/02 08:20:58;;;;;;;15.43;9.13;;;640.90;2432.00;;;;;;5073243;28;20036;-76
2023/06/02 08:23:25;;;;;;;14.00;9.05;;;640.90;2432.00;;;;;;5060784;28;20442;-77
2023/06/02 08:25:53;;;;;;;11.38;8.68;;;665.60;2432.00;;;;;;5072974;28;20462;-71
2023/06/02 08:28:24;;;;;;;12.90;8.00;;;665.60;2432.00;;;;;;5072330;28;20024;-79
2023/06/02 08:30:51;;;;;;;11.82;8.05;;;665.60;2432.00;;;;;;5070647;28;20044;-72
2023/06/02 08:33:17;;;;;;;12.20;8.77;;;665.60;2432.00;;;;;;5072977;28;20111;-71
2023/06/02 08:35:44;;;;;;;10.70;8.38;;;665.60;2432.00;;;;;;5066343;28;20107;-76
2023/06/02 08:38:14;;;;;;;14.27;7.85;;;665.70;2432.00;;;;;;5070014;28;20020;-71
2023/06/02 08:40:40;;;;;;;12.77;8.55;;;665.60;2432.00;;;;;;5067959;28;20016;-79
2023/06/02 08:43:08;;;;;;;9.38;7.22;;;665.60;2432.00;;;;;;5070743;28;20040;-74
2023/06/02 08:45:35;;;;;;;11.27;7.85;;;665.90;2432.00;;;;;;5067937;28;20545;-75
2023/06/02 08:48:05;;;;;;;14.50;8.02;;;665.70;2432.00;;;;;;5070824;28;20481;-71
2023/06/02 08:50:38;;;;;;;11.73;7.40;;;665.90;2432.00;;;;;;5072535;28;20033;-73
2023/06/02 08:53:05;;;;;;;12.07;6.68;;;;;;;;;;5068984;28;20044;-71
2023/06/02 08:55:32;;;;;;;11.80;7.78;;;;;;;;;;5045478;28;20020;-76
2023/06/02 08:57:58;;;;;;;14.07;7.82;;;;;;;;;;5073182;28;20051;-71
2023/06/02 09:00:24;;;;;;;9.63;7.03;;;665.90;2432.00;;;;;;5069078;28;20024;-72
2023/06/02 09:02:50;;;;;;;11.93;8.10;;;666.00;2432.00;;;;;;5072300;28;20439;-71
2023/06/02 09:05:16;;;;;;;11.13;7.55;;;666.20;2432.00;;;;;;5072197;28;20036;-72
2023/06/02 09:07:48;;;;;;;16.15;7.30;;;666.30;2432.00;;;;;;5072278;28;20020;-73
2023/06/02 09:10:30;;;;;;;12.60;6.72;;;666.30;2432.00;;;;;;5072076;28;20082;-75
2023/06/02 09:12:56;;;;;;;9.45;7.00;;;666.30;2432.00;;;;;;5072060;28;20028;-72
2023/06/02 09:15:24;;;;;;;11.05;7.10;;;666.50;2432.00;;;;;;5067570;28;20079;-73
2023/06/02 09:17:50;;;;;;;12.15;7.25;;;666.50;2432.00;;;;;;5072717;28;20034;-71
2023/06/02 09:20:15;;;;;;;9.60;7.10;;;666.20;2432.00;;;;;;5067757;28;20025;-73
2023/06/02 09:22:55;;;;;;;17.50;8.30;;;666.40;2432.00;;;;;;5059174;28;20021;-71
2023/06/02 09:25:27;;;;;;;11.38;7.13;;;691.20;2432.00;;;;;;5045648;28;20386;-81
2023/06/02 09:27:54;;;;;;;12.13;6.40;;;691.40;2432.00;;;;;;5072380;28;20386;-72
2023/06/02 09:30:20;;;;;;;10.77;6.60;;;691.50;2432.00;;;;;;5066898;28;20025;-76
2023/06/02 09:32:57;;;;;;;9.55;6.53;;;691.50;2432.00;;;;;;5070822;28;20029;-77
2023/06/02 09:35:44;;;;;;;11.82;6.30;;;691.60;2432.00;;;;;;5072061;28;20021;-73
2023/06/02 09:38:11;;;;;;;10.95;6.50;;;;;;;;;;5068176;28;20033;-71
2023/06/02 09:40:38;;;;;;;12.85;6.45;;;;;;;;;;5072288;28;20087;-75
2023/06/02 09:43:05;;;;;;;12.43;5.78;;;717.00;2432.00;;;;;;5070028;28;20025;-75
2023/06/02 09:45:32;;;;;;;10.40;5.85;;;717.10;2432.00;;;;;;5065741;28;20028;-75
2023/06/02 09:47:58;;;;;;;12.35;6.15;;;717.10;2278.40;;;;;;5071895;28;20021;-72
2023/06/02 09:50:50;;;;;;;9.90;5.65;;;717.30;2176.00;;;;;;5075569;28;20016;-74
2023/06/02 09:53:19;;;;;;;7.70;5.45;;;716.90;2099.20;;;;;;5063319;28;20047;-72
2023/06/02 09:55:47;;;;;;;9.13;6.25;;;692.10;2432.00;;;;;;5071565;28;20166;-71
2023/06/02 09:58:13;;;;;;;8.32;6.15;;;716.80;2227.20;;;;;;5075967;28;20074;-72
2023/06/02 10:00:39;;;;;;;12.57;5.50;;;716.90;2227.20;;;;;;5072775;28;20125;-73
2023/06/02 10:03:06;;;;;;;8.93;6.13;;;717.40;2201.60;;;;;;5075432;28;20032;-72
2023/06/02 10:05:33;;;;;;;10.68;5.75;;;717.70;1868.80;;;;;;5075275;28;20560;-74
2023/06/02 10:09:06;;;;;;;7.90;5.75;;;742.40;2048.00;;;;;;5075321;28;20492;-72
2023/06/02 10:12:23;;;;;;;10.40;5.93;;;742.60;2355.20;;;;;;4917168;29;20123;-73
2023/06/02 10:15:07;;;;;;;9.07;5.80;;;742.90;2099.20;;;;;;4879263;29;20658;-72
2023/06/02 10:18:09;;;;;;;7.80;5.72;;;742.80;1971.20;;;;;;4879717;29;20108;-72
2023/06/02 10:20:55;;;;;;;10.07;6.47;;;717.40;2048.00;;;;;;4879219;29;20065;-73
2023/06/02 10:24:18;;;;;;;10.95;6.28;;;717.40;2227.20;;;;;;4879025;29;20163;-72
2023/06/02 10:27:16;;;;;;;9.73;5.60;;;717.40;2278.40;;;;;;4829155;29;20046;-72
2023/06/02 10:29:43;;;;;;;8.45;5.72;;;717.70;2176.00;;;;;;4826157;29;20137;-73
2023/06/02 10:32:33;;;;;;;8.07;5.68;;;742.60;2099.20;;;;;;4828104;29;20137;-76
2023/06/02 10:34:59;;;;;;;9.60;5.65;;;742.60;2022.40;;;;;;4830860;29;20053;-71
2023/06/02 10:37:26;;;;;;;8.15;6.35;;;717.70;1971.20;;;;;;4832809;29;20050;-72
2023/06/02 10:39:56;;;;;;;7.47;5.53;;;717.40;1996.80;;;;;;4826089;29;20062;-72
2023/06/02 10:42:27;;;;;;;7.97;5.28;;;717.30;1996.80;;;;;;4835179;29;20435;-74
2023/06/02 10:45:12;;;;;;;8.82;5.63;;;717.70;2022.40;;;;;;4833258;29;20068;-70
2023/06/02 10:47:37;;;;;;;10.82;6.05;;;717.70;1920.00;;;;;;4902195;29;20043;-75
2023/06/02 10:50:11;;;;;;;8.18;5.72;;;717.40;2176.00;;;;;;4912299;29;20039;-72
2023/06/02 10:52:58;;;;;;;9.45;5.85;;;717.20;2227.20;;;;;;4954994;29;20504;-71
2023/06/02 10:55:29;;;;;;;8.63;5.20;;;716.80;2073.60;;;;;;4954264;28;20027;-71
2023/06/02 10:57:58;;;;;;;9.68;6.03;;;716.80;2099.20;;;;;;5008442;28;20034;-73
2023/06/02 11:00:35;;;;;;;8.05;6.05;;;692.10;2150.40;;;;;;5033076;28;20022;-76
2023/06/02 11:03:22;;;;;;;9.25;6.30;;;691.90;2252.80;;;;;;5034368;28;20037;-76
2023/06/02 11:05:50;;;;;;;10.70;6.18;;;691.70;1996.80;;;;;;5034241;28;20041;-78
2023/06/02 11:08:17;;;;;;;9.05;5.18;;;691.70;2329.60;;;;;;5034341;28;20021;-74
2023/06/02 11:10:47;;;;;;;8.57;5.72;;;691.60;2252.80;;;;;;5034380;28;20033;-81
2023/06/02 11:13:14;;;;;;;8.98;5.85;;;691.50;2252.80;;;;;;5034409;28;20151;-72
2023/06/02 11:15:58;;;;;;;11.82;7.07;;;691.40;2329.60;;;;;;5034159;28;20128;-74
2023/06/02 11:18:33;;;;;;;9.73;6.85;;;691.30;2304.00;;;;;;5034236;28;20030;-72
2023/06/02 11:21:01;;;;;;;9.77;5.93;;;691.30;2355.20;;;;;;5034380;28;20028;-70
2023/06/02 11:23:27;;;;;;;9.82;6.53;;;666.50;2432.00;;;;;;5033535;28;20302;-72
2023/06/02 11:26:10;;;;;;;17.77;8.43;;;666.20;2432.00;;;;;;5033671;28;20013;-72
2023/06/02 11:28:36;;;;;;;22.60;10.75;;;666.10;2432.00;;;;;;5031877;28;20017;-73
2023/06/02 11:31:11;;;;;;;18.50;8.82;;;665.70;2432.00;;;;;;5041406;28;20045;-77
2023/06/02 11:33:41;;;;;;;12.30;7.95;;;640.60;2432.00;;;;;;5053719;28;20113;-76
2023/06/02 11:36:12;;;;;;;8.85;5.60;;;640.20;2432.00;;;;;;5053892;28;20025;-70
2023/06/02 11:38:39;;;;;;;17.98;7.35;;;640.00;2432.00;;;;;;5056919;28;20419;-71
2023/06/02 11:41:12;;;;;;;10.45;7.40;;;615.30;2432.00;;;;;;5073521;28;20020;-71
2023/06/02 11:43:44;;;;;;;16.42;8.20;;;615.30;2432.00;;;;;;5065480;28;20078;-70
2023/06/02 11:46:18;;;;;;;25.58;9.68;;;615.10;2432.00;;;;;;5068925;28;20017;-70
2023/06/02 11:48:45;;;;;;;18.98;10.20;;;615.00;2432.00;;;;;;5069200;28;20058;-70
2023/06/02 11:51:12;;;;;;;14.10;9.60;;;614.90;2432.00;;;;;;5073406;28;20485;-71
2023/06/02 11:53:44;;;;;;;19.90;10.07;;;614.80;2432.00;;;;;;5071599;28;20032;-72
2023/06/02 11:56:14;;;;;;;20.58;9.88;;;614.60;2432.00;;;;;;5072578;28;20052;-70
2023/06/02 11:58:44;;;;;;;20.15;11.18;;;614.60;2432.00;;;;;;5073416;28;20036;-70
2023/06/02 12:01:14;;;;;;;13.70;10.43;;;614.60;2432.00;;;;;;5073108;28;20611;-70
2023/06/02 12:04:06;;;;;;;15.73;12.30;;;614.50;2432.00;;;;;;5073442;28;20486;-71
2023/06/02 12:06:34;;;;;;;17.30;12.60;;;614.40;2432.00;;;;;;5068609;28;20020;-75
2023/06/02 12:09:14;;;;;;;18.90;12.25;;;589.70;2432.00;;;;;;5073502;28;20109;-71
2023/06/02 12:11:40;;;;;;;14.23;10.65;;;589.70;2176.00;;;;;;5073152;28;20389;-72
2023/06/02 12:14:08;;;;;;;16.17;11.80;;;589.70;2432.00;;;;;;5073193;28;20021;-70
2023/06/02 12:16:34;;;;;;;16.20;13.50;;;614.50;2432.00;;;;;;5072925;28;20020;-71